Shao Shan 5 — VRKO9 — position and weather

sailwx.info

Track history (hours):
 
Tides and Currents Weather Stations Pressure Air Temp Water Temp Dewpoint Dewpoint Depression Visibility Wind Speed Wind Dir Waves Ship Positions

Shao Shan 5

Last reported at 2016-Jan-28 22:33 UTC. Time now 2016-Feb-11 08:45 UTC.
Position N 37°44' E 122°37'.
Warning: this ship's position is 13 days out of date.

Length 225 m; draft 9.9 m.

Type: Cargo ship. MMSI: 477325700.

Date/timePositionNaut miles runAvg speedWind from/ knotsBaromVisibWave heightAir tempDewpointWater temp
2016-Jan-28 22:33N 37°44' E 122°37'1411.5
2016-Jan-28 21:22N 37°51' E 122°23'21111.0
2016-Jan-28 02:13N 38°55' E 118°06'5 6.7
2016-Jan-28 01:27N 38°56' E 117°59'1011.2
2016-Jan-28 00:33N 38°58' E 117°47'1 0.6
2016-Jan-27 23:15N 38°59' E 117°46'0 0.0
2016-Jan-27 22:33N 38°59' E 117°46'0 0.0
2016-Jan-27 21:27N 38°59' E 117°46'0 0.0
2016-Jan-27 20:33N 38°59' E 117°46'0 0.0
2016-Jan-27 19:33N 38°59' E 117°46'0 0.0
2016-Jan-27 18:27N 38°59' E 117°46'0 0.0
2016-Jan-27 17:33N 38°59' E 117°46'0 0.0
2016-Jan-27 16:33N 38°59' E 117°46'0 0.0
2016-Jan-27 15:21N 38°59' E 117°46'0 0.0
2016-Jan-27 14:33N 38°59' E 117°46'0 0.0
2016-Jan-27 13:33N 38°59' E 117°46'0 0.0
2016-Jan-27 12:27N 38°59' E 117°46'0 0.0
2016-Jan-27 11:33N 38°59' E 117°46'0 0.0
2016-Jan-27 10:33N 38°59' E 117°46'0 0.0
2016-Jan-27 09:27N 38°59' E 117°46'0 0.0
2016-Jan-27 08:27N 38°59' E 117°46'0 0.0
2016-Jan-27 07:27N 38°59' E 117°46'0 0.0
2016-Jan-27 06:27N 38°59' E 117°46'0 0.0
2016-Jan-27 05:33N 38°59' E 117°46'0 0.0
2016-Jan-27 04:27N 38°59' E 117°46'0 0.0
2016-Jan-27 03:33N 38°59' E 117°46'0 0.0
2016-Jan-27 02:33N 38°59' E 117°46'0 0.0
2016-Jan-26 23:33N 38°59' E 117°46'0 0.0
2016-Jan-26 22:33N 38°59' E 117°46'0 0.0
2016-Jan-26 21:33N 38°59' E 117°46'0 0.0
2016-Jan-26 20:21N 38°59' E 117°46'0 0.0
2016-Jan-26 19:33N 38°59' E 117°46'0 0.0
2016-Jan-26 18:33N 38°59' E 117°46'0 0.0
2016-Jan-26 17:33N 38°59' E 117°46'0 0.0
2016-Jan-26 16:33N 38°59' E 117°46'0 0.0
2016-Jan-26 15:33N 38°59' E 117°46'0 0.0
2016-Jan-26 14:33N 38°59' E 117°46'0 0.0
2016-Jan-26 13:33N 38°59' E 117°46'0 0.0
2016-Jan-26 12:33N 38°59' E 117°46'0 0.0
2016-Jan-26 11:33N 38°59' E 117°46'0 0.0
2016-Jan-26 10:33N 38°59' E 117°46'0 0.0
2016-Jan-26 09:33N 38°59' E 117°46'0 0.0
2016-Jan-26 07:33N 38°59' E 117°46'0 0.0
2016-Jan-26 06:27N 38°59' E 117°46'0 0.0
2016-Jan-26 05:15N 38°59' E 117°46'0 0.0
2016-Jan-26 04:33N 38°59' E 117°46'0 0.0
2016-Jan-26 03:33N 38°59' E 117°46'0 0.3
2016-Jan-26 02:33N 38°58' E 117°46'5 4.7
2016-Jan-26 01:32N 38°58' E 117°52'  
2016-Jan-19 04:23N 40°16' E 121°49'6 7.4
2016-Jan-19 03:32N 40°18' E 121°57'6 6.2
2016-Jan-19 02:33N 40°18' E 122°05'0 0.0
2016-Jan-19 00:34N 40°18' E 122°05'  
Track history (hours):
 
Tides and Currents Weather Stations Pressure Air Temp Water Temp Dewpoint Dewpoint Depression Visibility Wind Speed Wind Dir Waves Ship Positions

Shao Shan 5

Last reported at 2016-Jan-28 22:33 UTC. Time now 2016-Feb-11 08:45 UTC.
Position N 37°44' E 122°37'.
Warning: this ship's position is 13 days out of date.

Length 225 m; draft 9.9 m.

Type: Cargo ship. MMSI: 477325700.

Date/timePositionNaut miles runAvg speedWind from/ knotsBaromVisibWave heightAir tempDewpointWater temp
2016-Jan-28 22:33N 37°44' E 122°37'1411.5
2016-Jan-28 21:22N 37°51' E 122°23'21111.0
2016-Jan-28 02:13N 38°55' E 118°06'5 6.7
2016-Jan-28 01:27N 38°56' E 117°59'1011.2
2016-Jan-28 00:33N 38°58' E 117°47'1 0.6
2016-Jan-27 23:15N 38°59' E 117°46'0 0.0
2016-Jan-27 22:33N 38°59' E 117°46'0 0.0
2016-Jan-27 21:27N 38°59' E 117°46'0 0.0
2016-Jan-27 20:33N 38°59' E 117°46'0 0.0
2016-Jan-27 19:33N 38°59' E 117°46'0 0.0
2016-Jan-27 18:27N 38°59' E 117°46'0 0.0
2016-Jan-27 17:33N 38°59' E 117°46'0 0.0
2016-Jan-27 16:33N 38°59' E 117°46'0 0.0
2016-Jan-27 15:21N 38°59' E 117°46'0 0.0
2016-Jan-27 14:33N 38°59' E 117°46'0 0.0
2016-Jan-27 13:33N 38°59' E 117°46'0 0.0
2016-Jan-27 12:27N 38°59' E 117°46'0 0.0
2016-Jan-27 11:33N 38°59' E 117°46'0 0.0
2016-Jan-27 10:33N 38°59' E 117°46'0 0.0
2016-Jan-27 09:27N 38°59' E 117°46'0 0.0
2016-Jan-27 08:27N 38°59' E 117°46'0 0.0
2016-Jan-27 07:27N 38°59' E 117°46'0 0.0
2016-Jan-27 06:27N 38°59' E 117°46'0 0.0
2016-Jan-27 05:33N 38°59' E 117°46'0 0.0
2016-Jan-27 04:27N 38°59' E 117°46'0 0.0
2016-Jan-27 03:33N 38°59' E 117°46'0 0.0
2016-Jan-27 02:33N 38°59' E 117°46'0 0.0
2016-Jan-26 23:33N 38°59' E 117°46'0 0.0
2016-Jan-26 22:33N 38°59' E 117°46'0 0.0
2016-Jan-26 21:33N 38°59' E 117°46'0 0.0
2016-Jan-26 20:21N 38°59' E 117°46'0 0.0
2016-Jan-26 19:33N 38°59' E 117°46'0 0.0
2016-Jan-26 18:33N 38°59' E 117°46'0 0.0
2016-Jan-26 17:33N 38°59' E 117°46'0 0.0
2016-Jan-26 16:33N 38°59' E 117°46'0 0.0
2016-Jan-26 15:33N 38°59' E 117°46'0 0.0
2016-Jan-26 14:33N 38°59' E 117°46'0 0.0
2016-Jan-26 13:33N 38°59' E 117°46'0 0.0
2016-Jan-26 12:33N 38°59' E 117°46'0 0.0
2016-Jan-26 11:33N 38°59' E 117°46'0 0.0
2016-Jan-26 10:33N 38°59' E 117°46'0 0.0
2016-Jan-26 09:33N 38°59' E 117°46'0 0.0
2016-Jan-26 07:33N 38°59' E 117°46'0 0.0
2016-Jan-26 06:27N 38°59' E 117°46'0 0.0
2016-Jan-26 05:15N 38°59' E 117°46'0 0.0
2016-Jan-26 04:33N 38°59' E 117°46'0 0.0
2016-Jan-26 03:33N 38°59' E 117°46'0 0.3
2016-Jan-26 02:33N 38°58' E 117°46'5 4.7
2016-Jan-26 01:32N 38°58' E 117°52'  
2016-Jan-19 04:23N 40°16' E 121°49'6 7.4
2016-Jan-19 03:32N 40°18' E 121°57'6 6.2
2016-Jan-19 02:33N 40°18' E 122°05'0 0.0
2016-Jan-19 00:34N 40°18' E 122°05'  

Dump ship's entire track history